Time;durP1;ratioP1;P1;durP2;ratioP2;P2;SDS_P1;SDS_P2;PMS_P1;PMS_P2;Temp;Humidity;BMP_temperature;BMP_pressure;BME280_temperature;BME280_humidity;BME280_pressure;Samples;Min_cycle;Max_cycle;Signal;HPM_P1;HPM_P2
2021/11/20 00:02:26;;;;;;;6.78;4.43;;;;;;;;;;4934941;29;20028;-75
2021/11/20 00:04:52;;;;;;;5.35;3.60;;;;;;;;;;4934748;29;20024;-74
2021/11/20 00:07:19;;;;;;;5.15;3.30;;;;;;;;;;4917734;29;20035;-74
2021/11/20 00:09:45;;;;;;;6.45;3.00;;;;;;;;;;4934797;29;20035;-74
2021/11/20 00:12:17;;;;;;;5.30;2.80;;;;;;;;;;4935075;29;20032;-75
2021/11/20 00:14:44;;;;;;;9.57;4.85;;;;;;;;;;4918058;29;20059;-75
2021/11/20 00:17:10;;;;;;;22.60;17.33;;;;;;;;;;4919220;29;20031;-74
2021/11/20 00:19:36;;;;;;;9.05;6.50;;;;;;;;;;4934997;29;20028;-75
2021/11/20 00:22:07;;;;;;;5.97;5.15;;;;;;;;;;4935016;29;20111;-74
2021/11/20 00:24:35;;;;;;;7.53;6.75;;;;;;;;;;4934909;29;20031;-75
2021/11/20 00:27:03;;;;;;;5.60;5.10;;;;;;;;;;4936309;29;20028;-74
2021/11/20 00:29:47;;;;;;;5.38;4.43;;;;;;;;;;4938017;29;20028;-74
2021/11/20 00:32:21;;;;;;;6.60;5.30;;;;;;;;;;4938290;29;20035;-74
2021/11/20 00:34:48;;;;;;;13.88;9.68;;;;;;;;;;4937483;29;20031;-75
2021/11/20 00:37:14;;;;;;;5.25;3.90;;;;;;;;;;4938300;29;20555;-75
2021/11/20 00:39:41;;;;;;;9.68;6.20;;;;;;;;;;4937781;29;20042;-75
2021/11/20 00:42:08;;;;;;;7.95;5.28;;;;;;;;;;4938182;29;20053;-74
2021/11/20 00:44:35;;;;;;;6.10;4.38;;;;;;;;;;4937947;29;20054;-74
2021/11/20 00:47:01;;;;;;;7.88;6.55;;;;;;;;;;4937494;29;20043;-75
2021/11/20 00:49:27;;;;;;;11.48;8.43;;;;;;;;;;4937692;29;20020;-74
2021/11/20 00:51:55;;;;;;;6.63;5.22;;;;;;;;;;4937630;29;20408;-74
2021/11/20 00:54:21;;;;;;;7.70;5.35;;;;;;;;;;4937388;29;20118;-75
2021/11/20 00:56:48;;;;;;;5.10;4.13;;;;;;;;;;4937749;29;20567;-74
2021/11/20 00:59:15;;;;;;;7.95;7.15;;;;;;;;;;4937431;29;20087;-75
2021/11/20 01:01:52;;;;;;;4.15;3.75;;;;;;;;;;4937443;29;20099;-75
2021/11/20 01:04:18;;;;;;;5.57;4.00;;;;;;;;;;4937467;29;20090;-75
2021/11/20 01:06:45;;;;;;;3.70;2.80;;;;;;;;;;4937259;29;20028;-75
2021/11/20 01:09:13;;;;;;;5.20;2.85;;;;;;;;;;4905285;29;20507;-75
2021/11/20 01:11:59;;;;;;;7.68;5.13;;;;;;;;;;4937496;29;20106;-74
2021/11/20 01:14:26;;;;;;;5.57;4.50;;;;;;;;;;4937239;29;20059;-75
2021/11/20 01:16:53;;;;;;;3.90;3.00;;;;;;;;;;4936885;29;20145;-74
2021/11/20 01:19:20;;;;;;;5.07;3.42;;;;;;;;;;4937194;29;20047;-74
2021/11/20 01:21:46;;;;;;;5.88;4.10;;;;;;;;;;4936556;29;20056;-74
2021/11/20 01:24:12;;;;;;;4.90;4.40;;;;;;;;;;4937017;29;20028;-74
2021/11/20 01:26:39;;;;;;;6.50;4.53;;;;;;;;;;4936764;29;20024;-76
2021/11/20 01:29:08;;;;;;;4.35;3.25;;;;;;;;;;4936714;29;20427;-74
2021/11/20 01:31:35;;;;;;;3.55;2.53;;;;;;;;;;4936804;29;20203;-74
2021/11/20 01:34:01;;;;;;;6.95;2.72;;;;;;;;;;4937082;29;20059;-74
2021/11/20 01:36:28;;;;;;;4.30;3.33;;;;;;;;;;4936753;29;20043;-75
2021/11/20 01:38:55;;;;;;;12.68;10.20;;;;;;;;;;4935749;29;20054;-77
2021/11/20 01:41:23;;;;;;;5.05;4.03;;;;;;;;;;4936588;29;20032;-74
2021/11/20 01:43:50;;;;;;;7.15;5.25;;;;;;;;;;4936633;29;20044;-74
2021/11/20 01:46:19;;;;;;;9.52;8.25;;;;;;;;;;4936547;29;20059;-74
2021/11/20 01:49:03;;;;;;;7.20;5.68;;;;;;;;;;4936299;29;20037;-75
2021/11/20 01:51:39;;;;;;;8.05;6.68;;;;;;;;;;4936500;29;20027;-76
2021/11/20 01:54:08;;;;;;;7.00;5.95;;;;;;;;;;4919187;29;20062;-75
2021/11/20 01:56:41;;;;;;;7.00;3.70;;;;;;;;;;4919234;29;20043;-73
2021/11/20 01:59:11;;;;;;;5.28;4.38;;;;;;;;;;4936516;29;20375;-75
2021/11/20 02:01:45;;;;;;;4.55;3.40;;;;;;;;;;4936782;29;20060;-76
2021/11/20 02:04:11;;;;;;;6.97;6.38;;;;;;;;;;4936625;29;20478;-75
2021/11/20 02:06:49;;;;;;;4.45;3.25;;;;;;;;;;4936248;29;20027;-74
2021/11/20 02:09:17;;;;;;;4.00;2.28;;;;;;;;;;4922207;29;20031;-73
2021/11/20 02:11:48;;;;;;;2.92;2.38;;;;;;;;;;4936169;29;20030;-76
2021/11/20 02:14:16;;;;;;;3.20;2.00;;;;;;;;;;4936261;29;20051;-75
2021/11/20 02:16:44;;;;;;;2.70;2.38;;;;;;;;;;4935921;29;20028;-74
2021/11/20 02:19:14;;;;;;;2.53;1.95;;;;;;;;;;4921011;29;20535;-74
2021/11/20 02:21:52;;;;;;;3.42;1.98;;;;;;;;;;4935873;29;20032;-74
2021/11/20 02:24:18;;;;;;;2.78;2.28;;;;;;;;;;4937382;29;20024;-73
2021/11/20 02:26:47;;;;;;;3.05;2.50;;;;;;;;;;4935761;29;20454;-75
2021/11/20 02:29:14;;;;;;;2.50;2.30;;;;;;;;;;4918724;29;20034;-75
2021/11/20 02:31:45;;;;;;;4.25;2.40;;;;;;;;;;4935832;29;20028;-74
2021/11/20 02:34:12;;;;;;;3.33;2.63;;;;;;;;;;4935649;29;20150;-74
2021/11/20 02:36:38;;;;;;;3.47;2.60;;;;;;;;;;4935648;29;20053;-75
2021/11/20 02:39:13;;;;;;;5.47;2.58;;;;;;;;;;4935495;29;20381;-74
2021/11/20 02:41:39;;;;;;;2.60;2.20;;;;;;;;;;4935530;29;20023;-73
2021/11/20 02:44:06;;;;;;;2.60;2.30;;;;;;;;;;4935744;29;20383;-74
2021/11/20 02:46:34;;;;;;;5.15;2.97;;;;;;;;;;4938556;29;20487;-76
2021/11/20 02:49:00;;;;;;;2.90;2.33;;;;;;;;;;4935286;29;20497;-73
2021/11/20 02:51:28;;;;;;;3.65;2.35;;;;;;;;;;4935406;29;20387;-76
2021/11/20 02:53:56;;;;;;;2.80;2.22;;;;;;;;;;4935241;29;20051;-74
2021/11/20 02:56:24;;;;;;;3.40;2.42;;;;;;;;;;4935721;29;20365;-75
2021/11/20 02:58:50;;;;;;;3.08;2.20;;;;;;;;;;4935130;29;20032;-75
2021/11/20 03:01:18;;;;;;;3.55;2.58;;;;;;;;;;4935278;29;20032;-75
2021/11/20 03:03:44;;;;;;;2.50;2.25;;;;;;;;;;4918042;29;20082;-75
2021/11/20 03:06:10;;;;;;;2.67;2.00;;;;;;;;;;4935197;29;20173;-75
2021/11/20 03:08:37;;;;;;;3.42;2.55;;;;;;;;;;4935214;29;20038;-76
2021/11/20 03:11:04;;;;;;;3.03;2.15;;;;;;;;;;4934838;29;20031;-75
2021/11/20 03:13:30;;;;;;;2.58;2.00;;;;;;;;;;4935332;29;20110;-76
2021/11/20 03:15:56;;;;;;;3.35;1.90;;;;;;;;;;4935114;29;20035;-74
2021/11/20 03:18:23;;;;;;;5.22;2.00;;;;;;;;;;4935113;29;20028;-74
2021/11/20 03:20:49;;;;;;;4.00;2.45;;;;;;;;;;4934890;29;20396;-74
2021/11/20 03:23:15;;;;;;;1.67;1.58;;;;;;;;;;4935231;29;20031;-73
2021/11/20 03:25:41;;;;;;;2.30;1.88;;;;;;;;;;4935109;29;20024;-73
2021/11/20 03:28:08;;;;;;;1.92;1.70;;;;;;;;;;4935061;29;20031;-75
2021/11/20 03:30:34;;;;;;;2.20;1.60;;;;;;;;;;4917808;29;20127;-75
2021/11/20 03:33:00;;;;;;;3.95;1.70;;;;;;;;;;4934695;29;20040;-73
2021/11/20 03:35:27;;;;;;;2.22;1.60;;;;;;;;;;4935312;29;20039;-75
2021/11/20 03:37:53;;;;;;;2.75;1.65;;;;;;;;;;4918027;29;20436;-74
2021/11/20 03:40:20;;;;;;;2.30;1.58;;;;;;;;;;4935114;29;20086;-73
2021/11/20 03:42:47;;;;;;;2.38;1.48;;;;;;;;;;4934710;29;20415;-75
2021/11/20 03:45:14;;;;;;;1.70;1.60;;;;;;;;;;4934958;29;20032;-75
2021/11/20 03:47:40;;;;;;;1.60;1.50;;;;;;;;;;4934876;29;20486;-75
2021/11/20 03:50:08;;;;;;;2.30;2.08;;;;;;;;;;4934893;29;20036;-75
2021/11/20 03:52:34;;;;;;;2.53;1.58;;;;;;;;;;4934637;29;20078;-74
2021/11/20 03:55:00;;;;;;;1.60;1.50;;;;;;;;;;4934476;29;20035;-75
2021/11/20 03:57:26;;;;;;;2.15;1.88;;;;;;;;;;4935111;29;20035;-74
2021/11/20 03:59:52;;;;;;;4.20;2.00;;;;;;;;;;4934757;29;20064;-74
2021/11/20 04:02:19;;;;;;;1.80;1.60;;;;;;;;;;4937396;29;20444;-74
2021/11/20 04:04:45;;;;;;;2.10;1.90;;;;;;;;;;4938285;29;20032;-75
2021/11/20 04:07:11;;;;;;;2.00;1.80;;;;;;;;;;4938416;29;20119;-74
2021/11/20 04:09:38;;;;;;;2.45;1.70;;;;;;;;;;4939090;29;20024;-74
2021/11/20 04:12:04;;;;;;;3.17;2.13;;;;;;;;;;4938220;29;20032;-76
2021/11/20 04:14:30;;;;;;;2.35;2.03;;;;;;;;;;4938449;29;20118;-74
2021/11/20 04:16:56;;;;;;;2.75;2.33;;;;;;;;;;4938283;29;20039;-74
2021/11/20 04:19:23;;;;;;;3.47;2.35;;;;;;;;;;4938349;29;20028;-74
2021/11/20 04:21:49;;;;;;;3.13;2.60;;;;;;;;;;4938371;29;20031;-75
2021/11/20 04:24:16;;;;;;;2.72;2.50;;;;;;;;;;4938193;29;20085;-75
2021/11/20 04:26:43;;;;;;;4.03;2.33;;;;;;;;;;4937948;29;20107;-74
2021/11/20 04:29:09;;;;;;;2.88;2.20;;;;;;;;;;4937868;29;20035;-74
2021/11/20 04:31:35;;;;;;;3.10;2.65;;;;;;;;;;4921006;29;20466;-75
2021/11/20 04:34:01;;;;;;;3.50;2.28;;;;;;;;;;4938357;29;20102;-75
2021/11/20 04:36:28;;;;;;;4.05;3.03;;;;;;;;;;4938117;29;20072;-74
2021/11/20 04:38:55;;;;;;;3.40;2.30;;;;;;;;;;4937552;29;20036;-75
2021/11/20 04:41:21;;;;;;;3.88;3.00;;;;;;;;;;4937724;29;20383;-74
2021/11/20 04:43:48;;;;;;;3.10;2.78;;;;;;;;;;4937235;29;20027;-74
2021/11/20 04:46:15;;;;;;;4.63;2.70;;;;;;;;;;4937677;29;20372;-74
2021/11/20 04:48:41;;;;;;;3.47;2.70;;;;;;;;;;4920471;29;20502;-75
2021/11/20 04:51:07;;;;;;;3.47;2.65;;;;;;;;;;4937165;29;20027;-73
2021/11/20 04:53:35;;;;;;;3.33;2.38;;;;;;;;;;4937793;29;20111;-76
2021/11/20 04:56:03;;;;;;;3.00;2.25;;;;;;;;;;4937941;29;20047;-74
2021/11/20 04:58:29;;;;;;;3.35;2.67;;;;;;;;;;4938040;29;20028;-74
2021/11/20 05:00:56;;;;;;;3.80;2.58;;;;;;;;;;4936860;29;20554;-75
2021/11/20 05:03:23;;;;;;;3.20;2.70;;;;;;;;;;4937543;29;20056;-75
2021/11/20 05:05:50;;;;;;;3.25;2.40;;;;;;;;;;4937349;29;20050;-74
2021/11/20 05:08:17;;;;;;;4.25;2.47;;;;;;;;;;4937368;29;20023;-74
2021/11/20 05:10:43;;;;;;;3.47;2.72;;;;;;;;;;4937144;29;20036;-75
2021/11/20 05:13:11;;;;;;;3.72;2.38;;;;;;;;;;4936254;29;20178;-73
2021/11/20 05:15:39;;;;;;;3.00;2.17;;;;;;;;;;4937251;29;20031;-74
2021/11/20 05:18:06;;;;;;;4.28;2.50;;;;;;;;;;4937083;29;20040;-76
2021/11/20 05:20:32;;;;;;;2.65;2.17;;;;;;;;;;4937211;29;20035;-76
2021/11/20 05:22:58;;;;;;;3.65;2.33;;;;;;;;;;4937029;29;20024;-75
2021/11/20 05:25:24;;;;;;;2.42;2.13;;;;;;;;;;4937133;29;20062;-76
2021/11/20 05:27:53;;;;;;;4.07;2.20;;;;;;;;;;4937246;29;20027;-75
2021/11/20 05:30:25;;;;;;;2.50;2.03;;;;;;;;;;4937123;29;20031;-75
2021/11/20 05:32:51;;;;;;;2.22;2.03;;;;;;;;;;4936692;29;20110;-76
2021/11/20 05:35:19;;;;;;;2.28;2.03;;;;;;;;;;4936790;29;20482;-76
2021/11/20 05:37:45;;;;;;;2.53;1.88;;;;;;;;;;4936764;29;20032;-75
2021/11/20 05:40:13;;;;;;;4.32;2.20;;;;;;;;;;4936858;29;20043;-75
2021/11/20 05:42:41;;;;;;;3.13;1.92;;;;;;;;;;4936821;29;20611;-76
2021/11/20 05:45:07;;;;;;;3.97;2.00;;;;;;;;;;4936656;29;20087;-76
2021/11/20 05:47:34;;;;;;;3.88;2.00;;;;;;;;;;4919471;29;20031;-76
2021/11/20 05:50:00;;;;;;;2.67;1.85;;;;;;;;;;4936941;29;20031;-76
2021/11/20 05:52:26;;;;;;;2.95;2.00;;;;;;;;;;4937057;29;20477;-75
2021/11/20 05:54:52;;;;;;;3.95;2.00;;;;;;;;;;4936415;29;20031;-75
2021/11/20 05:57:19;;;;;;;2.05;1.70;;;;;;;;;;4936435;29;20027;-75
2021/11/20 05:59:45;;;;;;;4.25;1.90;;;;;;;;;;4936764;29;20038;-75
2021/11/20 06:02:11;;;;;;;2.50;2.30;;;;;;;;;;4936380;29;20043;-75
2021/11/20 06:04:37;;;;;;;2.50;1.83;;;;;;;;;;4936505;29;20563;-75
2021/11/20 06:07:04;;;;;;;3.25;1.92;;;;;;;;;;4937809;29;20031;-75
2021/11/20 06:09:30;;;;;;;2.25;2.05;;;;;;;;;;4936836;29;20106;-75
2021/11/20 06:11:57;;;;;;;2.03;1.83;;;;;;;;;;4936510;29;20024;-74
2021/11/20 06:14:24;;;;;;;1.90;1.70;;;;;;;;;;4936811;29;20045;-75
2021/11/20 06:16:50;;;;;;;2.33;2.10;;;;;;;;;;4935787;29;20035;-75
2021/11/20 06:19:16;;;;;;;3.15;1.92;;;;;;;;;;4936124;29;20023;-74
2021/11/20 06:21:43;;;;;;;2.33;1.98;;;;;;;;;;4936441;29;20024;-75
2021/11/20 06:24:09;;;;;;;2.20;1.98;;;;;;;;;;4935798;29;20042;-75
2021/11/20 06:26:35;;;;;;;2.45;2.08;;;;;;;;;;4935888;29;20039;-74
2021/11/20 06:29:02;;;;;;;2.38;2.00;;;;;;;;;;4936250;29;20146;-75
2021/11/20 06:31:28;;;;;;;3.30;2.00;;;;;;;;;;4936519;29;20085;-75
2021/11/20 06:33:55;;;;;;;5.03;2.00;;;;;;;;;;4935775;29;20032;-75
2021/11/20 06:36:22;;;;;;;2.58;2.00;;;;;;;;;;4936981;29;20075;-73
2021/11/20 06:38:49;;;;;;;2.53;1.85;;;;;;;;;;4935237;29;20047;-73
2021/11/20 06:41:15;;;;;;;2.53;2.00;;;;;;;;;;4935632;29;20534;-73
2021/11/20 06:43:41;;;;;;;6.20;2.47;;;;;;;;;;4935609;29;20034;-75
2021/11/20 06:46:10;;;;;;;2.47;1.67;;;;;;;;;;4935553;29;20051;-76
2021/11/20 06:48:36;;;;;;;2.25;1.92;;;;;;;;;;4935925;29;20031;-74
2021/11/20 06:51:03;;;;;;;2.65;2.08;;;;;;;;;;4935470;29;20043;-74
2021/11/20 06:53:30;;;;;;;2.78;1.98;;;;;;;;;;4935259;29;20055;-74
2021/11/20 06:55:56;;;;;;;3.00;2.20;;;;;;;;;;4935541;29;20035;-74
2021/11/20 07:01:03;;;;;;;3.83;2.13;;;;;;;;;;4934884;29;20499;-74
2021/11/20 07:03:40;;;;;;;6.22;2.20;;;;;;;;;;4935625;29;20051;-73
2021/11/20 07:06:14;;;;;;;2.15;1.95;;;;;;;;;;4935565;29;20102;-74
2021/11/20 07:08:41;;;;;;;2.75;2.05;;;;;;;;;;4935231;29;20051;-73
2021/11/20 07:11:07;;;;;;;3.08;2.10;;;;;;;;;;4935373;29;20032;-74
2021/11/20 07:13:33;;;;;;;2.22;1.95;;;;;;;;;;4935225;29;20066;-75
2021/11/20 07:15:59;;;;;;;4.40;2.20;;;;;;;;;;4935579;29;20034;-75
2021/11/20 07:18:25;;;;;;;2.60;2.00;;;;;;;;;;4935985;29;20032;-74
2021/11/20 07:20:52;;;;;;;2.20;2.00;;;;;;;;;;4935015;29;20111;-74
2021/11/20 07:23:18;;;;;;;4.70;1.95;;;;;;;;;;4935118;29;20016;-73
2021/11/20 07:25:45;;;;;;;2.08;1.88;;;;;;;;;;4934823;29;20103;-76
2021/11/20 07:28:11;;;;;;;5.45;2.10;;;;;;;;;;4935578;29;20038;-74
2021/11/20 07:30:38;;;;;;;2.28;1.90;;;;;;;;;;4935099;29;20036;-74
2021/11/20 07:33:05;;;;;;;2.40;1.90;;;;;;;;;;4934832;29;20126;-74
2021/11/20 07:35:32;;;;;;;2.67;1.88;;;;;;;;;;4934894;29;20020;-75
2021/11/20 07:37:59;;;;;;;2.17;1.95;;;;;;;;;;4941825;29;20023;-75
2021/11/20 07:40:26;;;;;;;2.90;2.05;;;;;;;;;;4936825;29;20394;-74
2021/11/20 07:42:52;;;;;;;3.45;1.90;;;;;;;;;;4936504;29;20070;-74
2021/11/20 07:45:19;;;;;;;2.10;1.63;;;;;;;;;;4938854;29;20024;-74
2021/11/20 07:47:45;;;;;;;2.67;1.83;;;;;;;;;;4937784;29;20028;-75
2021/11/20 07:50:11;;;;;;;5.78;1.92;;;;;;;;;;4939068;29;20063;-74
2021/11/20 07:52:37;;;;;;;3.35;1.80;;;;;;;;;;4938725;29;20156;-75
2021/11/20 07:55:04;;;;;;;2.45;1.75;;;;;;;;;;4939000;29;20396;-74
2021/11/20 07:57:30;;;;;;;6.78;2.42;;;;;;;;;;4938938;29;20027;-74
2021/11/20 07:59:56;;;;;;;3.70;1.75;;;;;;;;;;4949019;29;20032;-74
2021/11/20 08:02:22;;;;;;;3.00;2.03;;;;;;;;;;4957908;29;20043;-73
2021/11/20 08:04:48;;;;;;;2.25;1.98;;;;;;;;;;4954751;29;20016;-76
2021/11/20 08:07:14;;;;;;;2.25;1.90;;;;;;;;;;4938755;29;20398;-73
2021/11/20 08:09:40;;;;;;;3.35;1.83;;;;;;;;;;4938702;29;20028;-74
2021/11/20 08:12:07;;;;;;;2.60;1.70;;;;;;;;;;4938736;29;20052;-74
2021/11/20 08:14:33;;;;;;;3.60;1.90;;;;;;;;;;4938599;29;20024;-74
2021/11/20 08:16:59;;;;;;;6.75;2.72;;;;;;;;;;4938796;29;20079;-75
2021/11/20 08:19:26;;;;;;;2.35;2.15;;;;;;;;;;4938490;29;20019;-74
2021/11/20 08:21:52;;;;;;;2.90;2.00;;;;;;;;;;4938334;29;20023;-76
2021/11/20 08:24:18;;;;;;;2.10;1.80;;;;;;;;;;4938289;29;20019;-75
2021/11/20 08:26:46;;;;;;;2.35;1.83;;;;;;;;;;4938331;29;20030;-75
2021/11/20 08:29:17;;;;;;;4.70;2.50;;;;;;;;;;4930403;29;20507;-74
2021/11/20 08:31:45;;;;;;;2.95;1.70;;;;;;;;;;4934806;29;20082;-77
2021/11/20 08:34:13;;;;;;;2.85;2.00;;;;;;;;;;4933114;29;20027;-74
2021/11/20 08:36:40;;;;;;;2.50;1.92;;;;;;;;;;4956565;29;20502;-76
2021/11/20 08:39:06;;;;;;;10.70;2.55;;;;;;;;;;4938110;29;20027;-76
2021/11/20 08:41:33;;;;;;;3.97;2.67;;;;;;;;;;4938054;29;20071;-75
2021/11/20 08:43:59;;;;;;;2.63;1.92;;;;;;;;;;4938219;29;20027;-76
2021/11/20 08:46:26;;;;;;;3.15;2.40;;;;;;;;;;4938060;29;20035;-75
2021/11/20 08:48:52;;;;;;;4.65;2.55;;;;;;;;;;4934044;29;20023;-75
2021/11/20 08:51:20;;;;;;;9.52;2.53;;;;;;;;;;4937544;29;20031;-75
2021/11/20 08:53:46;;;;;;;2.13;1.90;;;;;;;;;;4937333;29;20055;-76
2021/11/20 08:56:13;;;;;;;3.58;2.88;;;;;;;;;;4937155;29;20039;-75
2021/11/20 08:58:39;;;;;;;6.18;2.67;;;;;;;;;;4920915;29;20114;-74
2021/11/20 09:01:31;;;;;;;5.43;2.80;;;;;;;;;;4937293;29;20031;-74
2021/11/20 09:03:57;;;;;;;3.55;2.90;;;;;;;;;;4934566;29;20040;-73
2021/11/20 09:06:29;;;;;;;6.38;2.63;;;;;;;;;;4937506;29;20106;-74
2021/11/20 09:08:58;;;;;;;5.40;4.03;;;;;;;;;;4937141;29;20615;-74
2021/11/20 09:11:30;;;;;;;10.57;3.97;;;;;;;;;;4937151;29;20067;-75
2021/11/20 09:14:02;;;;;;;6.30;2.95;;;;;;;;;;4937541;29;20020;-75
2021/11/20 09:16:28;;;;;;;7.78;3.40;;;;;;;;;;4937276;29;20036;-75
2021/11/20 09:18:56;;;;;;;5.72;3.70;;;;;;;;;;4937290;29;20400;-74
2021/11/20 09:21:22;;;;;;;7.70;2.75;;;;;;;;;;4920255;29;20111;-74
2021/11/20 09:23:49;;;;;;;4.78;2.85;;;;;;;;;;4937169;29;20027;-73
2021/11/20 09:26:17;;;;;;;4.20;2.65;;;;;;;;;;4936471;29;20039;-74
2021/11/20 09:28:43;;;;;;;4.53;2.30;;;;;;;;;;4936950;29;20039;-73
2021/11/20 09:31:10;;;;;;;5.18;2.75;;;;;;;;;;4936910;29;20023;-74
2021/11/20 09:33:37;;;;;;;7.60;2.47;;;;;;;;;;4936668;29;20028;-74
2021/11/20 09:36:03;;;;;;;4.10;2.38;;;;;;;;;;4940450;29;20027;-76
2021/11/20 09:38:30;;;;;;;3.60;2.20;;;;;;;;;;4938141;29;20110;-75
2021/11/20 09:41:04;;;;;;;3.58;1.95;;;;;;;;;;4937786;29;20039;-77
2021/11/20 09:43:36;;;;;;;9.75;2.80;;;;;;;;;;4938615;29;20030;-77
2021/11/20 09:46:11;;;;;;;2.28;2.00;;;;;;;;;;4937368;29;20059;-76
2021/11/20 09:48:39;;;;;;;3.92;2.35;;;;;;;;;;4937365;29;20039;-76
2021/11/20 09:51:19;;;;;;;7.30;2.10;;;;;;;;;;4920158;29;20395;-75
2021/11/20 09:53:45;;;;;;;6.38;2.58;;;;;;;;;;4936692;29;20090;-76
2021/11/20 09:56:13;;;;;;;4.43;2.40;;;;;;;;;;4919417;29;20431;-76
2021/11/20 09:58:41;;;;;;;5.38;2.20;;;;;;;;;;4935935;29;20063;-75
2021/11/20 10:01:10;;;;;;;4.20;2.55;;;;;;;;;;4936275;29;20501;-74
2021/11/20 10:03:56;;;;;;;5.00;2.40;;;;;;;;;;4936371;29;20394;-76
2021/11/20 10:06:26;;;;;;;5.38;2.63;;;;;;;;;;4929430;29;20074;-76
2021/11/20 10:09:04;;;;;;;6.93;2.20;;;;;;;;;;4935986;29;20074;-76
2021/11/20 10:11:38;;;;;;;3.83;2.28;;;;;;;;;;4935879;29;20028;-75
2021/11/20 10:14:04;;;;;;;6.43;2.47;;;;;;;;;;4936225;29;20067;-76
2021/11/20 10:16:50;;;;;;;5.85;2.90;;;;;;;;;;4936184;29;20573;-76
2021/11/20 10:19:19;;;;;;;5.03;2.30;;;;;;;;;;4935627;29;20502;-77
2021/11/20 10:22:01;;;;;;;3.83;2.50;;;;;;;;;;4936031;29;20028;-77
2021/11/20 10:24:46;;;;;;;3.35;1.95;;;;;;;;;;4935825;29;20023;-76
2021/11/20 10:27:12;;;;;;;6.13;3.07;;;;;;;;;;4921099;29;20051;-76
2021/11/20 10:30:07;;;;;;;8.07;3.72;;;;;;;;;;4919110;29;20471;-77
2021/11/20 10:32:59;;;;;;;3.93;2.50;;;;;;;;;;4884345;29;20068;-74
2021/11/20 10:35:35;;;;;;;3.85;2.67;;;;;;;;;;4933897;29;20301;-75
2021/11/20 10:38:27;;;;;;;5.85;3.95;;;;;;;;;;4937130;29;20032;-74
2021/11/20 10:40:53;;;;;;;6.00;2.42;;;;;;;;;;4933759;29;20495;-75
2021/11/20 10:43:35;;;;;;;3.65;2.53;;;;;;;;;;4936328;29;20375;-75
2021/11/20 10:46:20;;;;;;;5.82;4.55;;;;;;;;;;4936285;29;20055;-76
2021/11/20 10:49:06;;;;;;;6.50;3.00;;;;;;;;;;4918160;29;20032;-75
2021/11/20 10:51:45;;;;;;;5.72;3.08;;;;;;;;;;4935458;29;20050;-75
2021/11/20 10:54:17;;;;;;;9.18;6.80;;;;;;;;;;4935322;29;20503;-74
2021/11/20 10:56:55;;;;;;;6.53;4.13;;;;;;;;;;4935273;29;20399;-76
2021/11/20 10:59:24;;;;;;;9.07;3.42;;;;;;;;;;4922416;29;20035;-74
2021/11/20 11:01:56;;;;;;;8.35;5.20;;;;;;;;;;4935296;29;20546;-75
2021/11/20 11:04:32;;;;;;;5.13;3.63;;;;;;;;;;4935944;29;20479;-74
2021/11/20 11:07:02;;;;;;;7.60;5.20;;;;;;;;;;4918451;29;20034;-77
2021/11/20 11:09:38;;;;;;;7.55;3.42;;;;;;;;;;4935480;29;20115;-75
2021/11/20 11:12:07;;;;;;;6.75;4.60;;;;;;;;;;4934483;29;20042;-75
2021/11/20 11:14:52;;;;;;;6.05;3.22;;;;;;;;;;4918307;29;20406;-77
2021/11/20 11:17:18;;;;;;;4.90;2.30;;;;;;;;;;4935333;29;20032;-77
2021/11/20 11:19:47;;;;;;;7.30;3.13;;;;;;;;;;4935125;29;20060;-76
2021/11/20 11:22:21;;;;;;;5.75;3.42;;;;;;;;;;4935449;29;20106;-76
2021/11/20 11:24:47;;;;;;;6.90;4.32;;;;;;;;;;4935056;29;20498;-77
2021/11/20 11:27:38;;;;;;;5.68;3.72;;;;;;;;;;4935385;29;20026;-77
2021/11/20 11:30:09;;;;;;;7.70;3.90;;;;;;;;;;4908838;29;20110;-76
2021/11/20 11:32:37;;;;;;;7.93;3.85;;;;;;;;;;4935102;29;20123;-75
2021/11/20 11:35:23;;;;;;;5.25;3.05;;;;;;;;;;4935074;29;20028;-75
2021/11/20 11:38:03;;;;;;;6.80;3.33;;;;;;;;;;4934994;29;20030;-75
2021/11/20 11:40:47;;;;;;;5.85;3.30;;;;;;;;;;4936912;29;20036;-75
2021/11/20 11:43:32;;;;;;;4.55;2.92;;;;;;;;;;4920310;29;20461;-75
2021/11/20 11:46:10;;;;;;;4.05;2.70;;;;;;;;;;4935128;29;20111;-76
2021/11/20 11:48:45;;;;;;;6.40;4.88;;;;;;;;;;4935162;29;20027;-77
2021/11/20 11:51:30;;;;;;;9.32;4.72;;;;;;;;;;4919870;29;20036;-75
2021/11/20 11:54:00;;;;;;;6.55;4.15;;;;;;;;;;4934722;29;20499;-74
2021/11/20 11:56:29;;;;;;;7.35;5.60;;;;;;;;;;4917716;29;20062;-76
2021/11/20 11:59:04;;;;;;;8.00;4.47;;;;;;;;;;4934690;29;20034;-74
2021/11/20 12:01:46;;;;;;;5.03;3.20;;;;;;;;;;4934826;29;20027;-77
2021/11/20 12:04:17;;;;;;;7.60;3.15;;;;;;;;;;4934840;29;20032;-77
2021/11/20 12:06:48;;;;;;;11.55;5.40;;;;;;;;;;4934845;29;20126;-77
2021/11/20 12:09:34;;;;;;;4.72;3.00;;;;;;;;;;4920148;29;20023;-76
2021/11/20 12:12:08;;;;;;;7.90;3.78;;;;;;;;;;4934643;29;20020;-75
2021/11/20 12:14:37;;;;;;;6.50;4.10;;;;;;;;;;4934804;29;20028;-77
2021/11/20 12:17:22;;;;;;;7.45;5.32;;;;;;;;;;4934542;29;20055;-76
2021/11/20 12:19:51;;;;;;;7.13;4.05;;;;;;;;;;4934288;29;20036;-76
2021/11/20 12:22:22;;;;;;;9.85;4.28;;;;;;;;;;4935279;29;20028;-75
2021/11/20 12:24:55;;;;;;;11.02;6.15;;;;;;;;;;4938043;29;20024;-75
2021/11/20 12:27:24;;;;;;;6.03;4.45;;;;;;;;;;4938084;29;20019;-75
2021/11/20 12:29:50;;;;;;;9.18;5.50;;;;;;;;;;4938240;29;20024;-75
2021/11/20 12:32:35;;;;;;;7.80;4.82;;;;;;;;;;4937962;29;20028;-74
2021/11/20 12:35:06;;;;;;;7.35;4.50;;;;;;;;;;4938233;29;20028;-76
2021/11/20 12:37:47;;;;;;;14.98;8.80;;;;;;;;;;4938012;29;20491;-75
2021/11/20 12:40:20;;;;;;;23.48;12.00;;;;;;;;;;4937476;29;20032;-76
2021/11/20 12:42:46;;;;;;;88.43;38.85;;;;;;;;;;4937993;29;20042;-76
2021/11/20 12:45:21;;;;;;;87.70;45.58;;;;;;;;;;4920616;29;20509;-75
2021/11/20 12:48:06;;;;;;;9.15;7.47;;;;;;;;;;4937901;29;20423;-75
2021/11/20 12:50:32;;;;;;;12.40;6.10;;;;;;;;;;4923931;29;20419;-75
2021/11/20 12:53:02;;;;;;;6.63;5.47;;;;;;;;;;4937938;29;20048;-76
2021/11/20 12:55:47;;;;;;;7.80;5.00;;;;;;;;;;4937680;29;20031;-77
2021/11/20 12:58:16;;;;;;;10.43;3.72;;;;;;;;;;4938479;29;20032;-74
2021/11/20 13:00:46;;;;;;;9.18;5.05;;;;;;;;;;4921225;29;20574;-75
2021/11/20 13:03:12;;;;;;;10.48;4.80;;;;;;;;;;4920315;29;20035;-76
2021/11/20 13:05:38;;;;;;;8.90;4.50;;;;;;;;;;4937448;29;20031;-76
2021/11/20 13:08:06;;;;;;;4.75;3.90;;;;;;;;;;4937243;29;20106;-75
2021/11/20 13:10:33;;;;;;;8.20;4.43;;;;;;;;;;4937741;29;20035;-75
2021/11/20 13:13:07;;;;;;;12.68;4.53;;;;;;;;;;4937384;29;20028;-76
2021/11/20 13:15:45;;;;;;;10.18;5.38;;;;;;;;;;4920562;29;20059;-76
2021/11/20 13:18:11;;;;;;;9.52;4.40;;;;;;;;;;4937307;29;20031;-75
2021/11/20 13:20:42;;;;;;;14.07;4.03;;;;;;;;;;4938445;29;20032;-75
2021/11/20 13:23:11;;;;;;;9.52;3.38;;;;;;;;;;4937662;29;20482;-77
2021/11/20 13:25:44;;;;;;;4.25;3.15;;;;;;;;;;4936901;29;20023;-75
2021/11/20 13:28:11;;;;;;;8.43;3.22;;;;;;;;;;4936875;29;20031;-75
2021/11/20 13:30:37;;;;;;;5.85;3.20;;;;;;;;;;4937596;29;20024;-76
2021/11/20 13:33:05;;;;;;;16.00;3.85;;;;;;;;;;4936769;29;20399;-76
2021/11/20 13:35:36;;;;;;;10.95;3.60;;;;;;;;;;4919386;29;20035;-75
2021/11/20 13:38:10;;;;;;;5.93;3.67;;;;;;;;;;4936816;29;20071;-75
2021/11/20 13:40:48;;;;;;;5.93;3.30;;;;;;;;;;4937203;29;20483;-75
2021/11/20 13:43:18;;;;;;;8.02;3.40;;;;;;;;;;4936934;29;20032;-77
2021/11/20 13:45:48;;;;;;;4.75;3.15;;;;;;;;;;4919663;29;20033;-76
2021/11/20 13:48:14;;;;;;;6.90;3.30;;;;;;;;;;4936566;29;20042;-77
2021/11/20 13:50:41;;;;;;;5.07;3.22;;;;;;;;;;4920552;29;20036;-75
2021/11/20 13:53:13;;;;;;;11.77;3.85;;;;;;;;;;4937012;29;20118;-76
2021/11/20 13:55:39;;;;;;;4.80;3.38;;;;;;;;;;4936988;29;20035;-76
2021/11/20 13:58:05;;;;;;;5.85;3.78;;;;;;;;;;4919761;29;20031;-75
2021/11/20 14:00:31;;;;;;;7.85;3.83;;;;;;;;;;4936669;29;20033;-75
2021/11/20 14:02:58;;;;;;;8.70;6.13;;;;;;;;;;4937485;29;20051;-75
2021/11/20 14:05:25;;;;;;;7.35;4.32;;;;;;;;;;4936245;29;20036;-76
2021/11/20 14:08:05;;;;;;;6.80;5.30;;;;;;;;;;4919287;29;20035;-76
2021/11/20 14:10:41;;;;;;;7.60;4.70;;;;;;;;;;4922081;29;20033;-75
2021/11/20 14:13:17;;;;;;;8.60;5.97;;;;;;;;;;4937376;29;20028;-75
2021/11/20 14:15:54;;;;;;;9.07;6.93;;;;;;;;;;4923575;29;20075;-76
2021/11/20 14:18:21;;;;;;;12.80;5.90;;;;;;;;;;4938709;29;20495;-75
2021/11/20 14:20:56;;;;;;;5.97;5.38;;;;;;;;;;4936818;29;20044;-75
2021/11/20 14:23:24;;;;;;;7.60;5.70;;;;;;;;;;4937393;29;20031;-76
2021/11/20 14:25:51;;;;;;;8.95;5.78;;;;;;;;;;4937938;29;20040;-75
2021/11/20 14:28:23;;;;;;;7.47;6.57;;;;;;;;;;4937022;29;20028;-75
2021/11/20 14:30:50;;;;;;;8.20;7.20;;;;;;;;;;4937471;29;20027;-76
2021/11/20 14:33:19;;;;;;;11.40;8.38;;;;;;;;;;4937254;29;20119;-76
2021/11/20 14:35:55;;;;;;;11.40;5.95;;;;;;;;;;4938238;29;20515;-76
2021/11/20 14:38:21;;;;;;;8.15;4.97;;;;;;;;;;4936507;29;20027;-75
2021/11/20 14:40:49;;;;;;;3.10;2.63;;;;;;;;;;4921288;29;20082;-75
2021/11/20 14:43:25;;;;;;;5.07;3.25;;;;;;;;;;4921448;29;20037;-76
2021/11/20 14:46:04;;;;;;;3.38;2.88;;;;;;;;;;4936959;29;20042;-77
2021/11/20 14:48:37;;;;;;;3.67;2.92;;;;;;;;;;4938332;29;20035;-77
2021/11/20 14:51:03;;;;;;;5.68;3.53;;;;;;;;;;4938298;29;20513;-76
2021/11/20 14:53:31;;;;;;;7.53;5.38;;;;;;;;;;4936694;29;20052;-76
2021/11/20 14:56:00;;;;;;;5.55;3.88;;;;;;;;;;4938798;29;20036;-75
2021/11/20 14:58:27;;;;;;;4.43;2.88;;;;;;;;;;4919435;29;20443;-77
2021/11/20 15:00:55;;;;;;;6.20;4.57;;;;;;;;;;4937149;29;20066;-76